createdAt,value
2018-04-06T00:01:12.991Z,92.40
2018-04-06T00:03:40.503Z,92.40
2018-04-06T00:06:08.821Z,92.40
2018-04-06T00:08:36.336Z,92.40
2018-04-06T00:11:03.867Z,92.40
2018-04-06T00:13:32.267Z,92.40
2018-04-06T00:15:59.778Z,92.40
2018-04-06T00:18:27.817Z,92.40
2018-04-06T00:20:56.103Z,92.40
2018-04-06T00:23:23.608Z,92.40
2018-04-06T00:25:51.124Z,92.40
2018-04-06T00:28:18.906Z,92.50
2018-04-06T00:30:46.439Z,92.30
2018-04-06T00:33:14.713Z,92.40
2018-04-06T00:35:42.233Z,92.40
2018-04-06T00:38:09.734Z,92.50
2018-04-06T00:40:37.235Z,92.50
2018-04-06T00:43:05.290Z,92.40
2018-04-06T00:45:32.787Z,92.60
2018-04-06T00:48:00.297Z,92.40
2018-04-06T00:50:27.807Z,92.50
2018-04-06T00:52:55.323Z,92.60
2018-04-06T00:55:22.818Z,92.50
2018-04-06T00:57:50.335Z,92.60
2018-04-06T01:00:17.851Z,92.60
2018-04-06T01:02:45.384Z,92.70
2018-04-06T01:05:12.923Z,92.50
2018-04-06T01:07:40.434Z,92.70
2018-04-06T01:10:08.015Z,92.70
2018-04-06T01:12:35.512Z,92.70
2018-04-06T01:15:03.165Z,92.60
2018-04-06T01:17:30.703Z,92.70
2018-04-06T01:19:58.235Z,92.70
2018-04-06T01:22:25.748Z,92.70
2018-04-06T01:24:53.264Z,92.70
2018-04-06T01:27:21.313Z,92.80
2018-04-06T01:29:48.843Z,92.80
2018-04-06T01:32:16.363Z,92.80
2018-04-06T01:34:43.868Z,92.80
2018-04-06T01:37:11.379Z,92.80
2018-04-06T01:39:38.873Z,92.90
2018-04-06T01:42:06.604Z,92.90
2018-04-06T01:44:34.122Z,92.80
2018-04-06T01:47:01.702Z,93.00
2018-04-06T01:49:29.228Z,92.90
2018-04-06T01:51:56.789Z,92.90
2018-04-06T01:54:25.118Z,93.00
2018-04-06T01:56:52.621Z,93.00
2018-04-06T01:59:20.975Z,92.80
2018-04-06T02:01:48.515Z,92.80
2018-04-06T02:04:16.014Z,93.10
2018-04-06T02:06:43.539Z,93.10
2018-04-06T02:09:11.051Z,93.00
2018-04-06T02:11:38.577Z,93.20
2018-04-06T02:14:07.011Z,93.20
2018-04-06T02:16:34.523Z,93.10
2018-04-06T02:19:03.128Z,93.10
2018-04-06T02:21:31.384Z,93.20
2018-04-06T02:23:59.654Z,93.20
2018-04-06T02:26:27.176Z,93.20
2018-04-06T02:28:54.702Z,93.20
2018-04-06T02:31:22.229Z,93.10
2018-04-06T02:33:49.733Z,93.20
2018-04-06T02:36:17.246Z,93.20
2018-04-06T02:38:44.759Z,93.20
2018-04-06T02:41:12.280Z,93.30
2018-04-06T02:43:39.813Z,93.20
2018-04-06T02:46:07.327Z,93.30
2018-04-06T02:48:34.878Z,93.50
2018-04-06T02:51:02.399Z,93.50
2018-04-06T02:53:30.681Z,93.30
2018-04-06T02:55:58.998Z,93.50
2018-04-06T02:58:26.523Z,93.80
2018-04-06T03:00:54.954Z,93.60
2018-04-06T03:03:22.476Z,93.70
2018-04-06T03:05:50.117Z,93.60
2018-04-06T03:08:17.673Z,93.60
2018-04-06T03:10:45.950Z,93.70
2018-04-06T03:13:14.244Z,93.70
2018-04-06T03:15:41.764Z,93.70
2018-04-06T03:18:09.273Z,93.60
2018-04-06T03:20:36.772Z,93.50
2018-04-06T03:23:04.290Z,93.60
2018-04-06T03:25:31.844Z,93.70
2018-04-06T03:27:59.580Z,93.70
2018-04-06T03:30:27.859Z,93.70
2018-04-06T03:32:55.381Z,93.70
2018-04-06T03:35:22.902Z,93.70
2018-04-06T03:37:50.403Z,93.70
2018-04-06T03:40:17.957Z,93.70
2018-04-06T03:42:45.477Z,93.80
2018-04-06T03:45:13.103Z,93.80
2018-04-06T03:47:41.406Z,93.70
2018-04-06T03:50:08.923Z,93.70
2018-04-06T03:52:36.430Z,93.70
2018-04-06T03:55:03.989Z,93.70
2018-04-06T03:57:31.504Z,93.80
2018-04-06T03:59:59.124Z,93.70
2018-04-06T04:02:26.683Z,93.80
2018-04-06T04:04:54.143Z,93.80
2018-04-06T04:07:22.780Z,93.80
2018-04-06T04:09:51.185Z,93.90
2018-04-06T04:12:18.827Z,93.90
2018-04-06T04:14:46.353Z,94.00
2018-04-06T04:17:13.874Z,94.00
2018-04-06T04:19:41.382Z,94.00
2018-04-06T04:22:08.909Z,93.90
2018-04-06T04:24:36.443Z,94.00
2018-04-06T04:27:03.961Z,94.00
2018-04-06T04:29:32.262Z,93.90
2018-04-06T04:31:59.788Z,93.90
2018-04-06T04:34:27.350Z,93.90
2018-04-06T04:36:54.835Z,93.90
2018-04-06T04:39:22.360Z,93.90
2018-04-06T04:41:50.772Z,93.90
2018-04-06T04:44:18.330Z,93.90
2018-04-06T04:46:45.899Z,93.90
2018-04-06T04:49:13.695Z,93.80
2018-04-06T04:51:41.213Z,93.70
2018-04-06T04:54:08.751Z,93.70
2018-04-06T04:56:36.255Z,93.70
2018-04-06T04:59:03.779Z,93.70
2018-04-06T05:01:32.083Z,93.80
2018-04-06T05:03:59.610Z,93.70
2018-04-06T05:06:27.276Z,93.90
2018-04-06T05:08:54.968Z,93.80
2018-04-06T05:11:22.504Z,93.90
2018-04-06T05:13:50.004Z,93.80
2018-04-06T05:16:17.542Z,93.90
2018-04-06T05:18:45.086Z,94.00
2018-04-06T05:21:12.640Z,93.90
2018-04-06T05:23:40.369Z,93.90
2018-04-06T05:26:08.771Z,93.90
2018-04-06T05:28:36.287Z,93.80
2018-04-06T05:31:03.902Z,93.90
2018-04-06T05:33:31.641Z,93.90
2018-04-06T05:35:59.939Z,93.90
2018-04-06T05:38:27.443Z,93.90
2018-04-06T05:40:54.956Z,94.00
2018-04-06T05:43:22.637Z,93.90
2018-04-06T05:45:50.172Z,93.90
2018-04-06T05:48:17.684Z,93.90
2018-04-06T05:50:45.208Z,93.90
2018-04-06T05:53:12.756Z,93.90
2018-04-06T05:55:40.302Z,94.00
2018-04-06T05:58:07.823Z,93.80
2018-04-06T06:00:36.092Z,93.80
2018-04-06T06:03:04.535Z,93.90
2018-04-06T06:05:32.062Z,93.90
2018-04-06T06:08:00.355Z,93.80
2018-04-06T06:10:28.631Z,93.70
2018-04-06T06:12:56.141Z,93.70
2018-04-06T06:15:23.656Z,93.80
2018-04-06T06:17:51.289Z,93.80
2018-04-06T06:20:19.563Z,93.70
2018-04-06T06:22:47.831Z,93.70
2018-04-06T06:25:16.137Z,93.70
2018-04-06T06:27:43.798Z,93.70
2018-04-06T06:30:11.392Z,93.60
2018-04-06T06:32:38.896Z,93.60
2018-04-06T06:35:07.176Z,93.60
2018-04-06T06:37:36.003Z,93.70
2018-04-06T06:40:03.524Z,93.60
2018-04-06T06:42:31.814Z,93.60
2018-04-06T06:44:59.360Z,93.60
2018-04-06T06:47:26.882Z,93.50
2018-04-06T06:49:54.440Z,93.30
2018-04-06T06:52:22.155Z,93.40
2018-04-06T06:54:49.688Z,93.30
2018-04-06T06:57:17.976Z,93.10
2018-04-06T06:59:46.365Z,93.00
2018-04-06T07:02:14.515Z,93.00
2018-04-06T07:04:42.799Z,92.90
2018-04-06T07:07:11.070Z,92.70
2018-04-06T07:09:39.362Z,92.70
2018-04-06T07:12:06.901Z,92.70
2018-04-06T07:14:34.403Z,92.90
2018-04-06T07:17:01.904Z,92.50
2018-04-06T07:19:29.403Z,92.40
2018-04-06T07:21:56.908Z,92.10
2018-04-06T07:24:24.959Z,92.30
2018-04-06T07:26:52.514Z,92.20
2018-04-06T07:29:20.039Z,92.20
2018-04-06T07:31:47.559Z,92.10
2018-04-06T07:34:15.108Z,92.20
2018-04-06T07:36:42.629Z,92.10
2018-04-06T07:39:10.147Z,92.10
2018-04-06T07:41:37.664Z,92.30
2018-04-06T07:44:05.263Z,91.80
2018-04-06T07:46:32.772Z,91.90
2018-04-06T07:49:00.291Z,91.70
2018-04-06T07:51:28.581Z,91.00
2018-04-06T07:53:56.090Z,91.00
2018-04-06T07:56:23.616Z,90.80
2018-04-06T07:58:51.125Z,90.70
2018-04-06T08:01:18.627Z,91.00
2018-04-06T08:03:46.188Z,91.10
2018-04-06T08:06:13.700Z,91.20
2018-04-06T08:08:41.807Z,90.70
2018-04-06T08:11:09.317Z,90.60
2018-04-06T08:13:36.867Z,90.40
2018-04-06T08:16:04.380Z,90.70
2018-04-06T08:18:32.318Z,89.90
2018-04-06T08:21:00.591Z,88.60
2018-04-06T08:23:28.108Z,88.50
2018-04-06T08:25:55.607Z,88.50
2018-04-06T08:28:23.324Z,87.50
2018-04-06T08:30:50.831Z,88.40
2018-04-06T08:33:18.444Z,88.40
2018-04-06T08:35:45.974Z,86.50
2018-04-06T08:38:14.450Z,85.00
2018-04-06T08:40:41.971Z,85.40
2018-04-06T08:43:09.627Z,85.20
2018-04-06T08:45:37.129Z,84.00
2018-04-06T08:48:04.774Z,83.00
2018-04-06T08:50:33.062Z,80.30
2018-04-06T08:53:01.353Z,82.00
2018-04-06T08:55:28.868Z,81.90
2018-04-06T08:57:57.885Z,82.10
2018-04-06T09:00:26.183Z,77.30
2018-04-06T09:02:53.697Z,77.30
2018-04-06T09:05:21.296Z,78.00
2018-04-06T09:07:48.817Z,77.30
2018-04-06T09:10:17.823Z,79.20
2018-04-06T09:12:46.156Z,78.60
2018-04-06T09:15:13.636Z,78.60
2018-04-06T09:17:41.177Z,76.50
2018-04-06T09:20:08.723Z,75.40
2018-04-06T09:22:36.233Z,76.40
2018-04-06T09:25:03.800Z,76.30
2018-04-06T09:27:32.180Z,73.50
2018-04-06T09:30:00.168Z,73.50
2018-04-06T09:32:27.686Z,72.10
2018-04-06T09:34:55.296Z,75.00
2018-04-06T09:37:22.804Z,71.20
2018-04-06T09:39:51.828Z,70.10
2018-04-06T09:42:19.351Z,70.00
2018-04-06T09:44:46.868Z,72.30
2018-04-06T09:47:14.551Z,73.60
2018-04-06T09:49:42.074Z,74.60
2018-04-06T09:52:10.394Z,73.90
2018-04-06T09:54:37.914Z,73.10
2018-04-06T09:57:05.524Z,73.20
2018-04-06T09:59:33.050Z,75.00
2018-04-06T10:02:00.567Z,75.20
2018-04-06T10:04:28.849Z,74.60
2018-04-06T10:06:58.048Z,73.90
2018-04-06T10:09:25.592Z,73.80
2018-04-06T10:11:54.744Z,71.20
2018-04-06T10:14:22.239Z,71.00
2018-04-06T10:16:51.125Z,72.30
2018-04-06T10:19:18.907Z,69.40
2018-04-06T10:21:47.237Z,64.60
2018-04-06T10:24:14.751Z,64.50
2018-04-06T10:26:42.247Z,66.50
2018-04-06T10:29:09.859Z,68.10
2018-04-06T10:31:37.514Z,65.50
2018-04-06T10:34:05.808Z,63.60
2018-04-06T10:36:33.349Z,63.50
2018-04-06T10:39:00.893Z,62.80
2018-04-06T10:41:28.431Z,59.80
2018-04-06T10:43:55.921Z,61.80
2018-04-06T10:46:23.464Z,61.90
2018-04-06T10:48:52.112Z,64.50
2018-04-06T10:51:19.725Z,64.50
2018-04-06T10:53:48.060Z,65.20
2018-04-06T10:56:15.572Z,65.30
2018-04-06T10:58:43.972Z,61.10
2018-04-06T11:01:11.531Z,61.00
2018-04-06T11:03:39.111Z,62.90
2018-04-06T11:06:06.666Z,60.60
2018-04-06T11:08:34.263Z,63.40
2018-04-06T11:11:02.698Z,60.90
2018-04-06T11:13:30.274Z,60.70
2018-04-06T11:15:58.378Z,59.40
2018-04-06T11:18:25.998Z,58.40
2018-04-06T11:20:53.572Z,57.80
2018-04-06T11:23:21.104Z,58.10
2018-04-06T11:25:48.686Z,58.30
2018-04-06T11:28:16.337Z,56.70
2018-04-06T11:30:43.900Z,56.40
2018-04-06T11:33:11.713Z,55.50
2018-04-06T11:35:39.272Z,57.30
2018-04-06T11:38:07.553Z,57.30
2018-04-06T11:40:35.920Z,55.20
2018-04-06T11:43:04.206Z,55.20
2018-04-06T11:45:31.791Z,55.20
2018-04-06T11:47:59.284Z,55.90
2018-04-06T11:50:26.887Z,55.40
2018-04-06T11:52:55.284Z,52.00
2018-04-06T11:55:23.633Z,52.00
2018-04-06T11:57:51.185Z,52.80
2018-04-06T12:00:20.112Z,52.90
2018-04-06T12:02:48.089Z,52.80
2018-04-06T12:05:15.760Z,53.60
2018-04-06T12:07:43.274Z,54.40
2018-04-06T12:10:11.535Z,52.40
2018-04-06T12:12:39.524Z,52.30
2018-04-06T12:15:07.031Z,53.80
2018-04-06T12:17:34.560Z,50.40
2018-04-06T12:20:02.078Z,51.10
2018-04-06T12:22:30.971Z,51.10
2018-04-06T12:24:58.552Z,51.00
2018-04-06T12:27:26.065Z,51.30
2018-04-06T12:29:53.583Z,52.00
2018-04-06T12:32:21.102Z,51.90
2018-04-06T12:34:49.376Z,51.30
2018-04-06T12:37:16.928Z,49.30
2018-04-06T12:39:44.836Z,51.30
2018-04-06T12:42:12.343Z,50.70
2018-04-06T12:44:39.860Z,49.10
2018-04-06T12:47:07.386Z,48.10
2018-04-06T12:49:35.656Z,49.80
2018-04-06T12:52:03.952Z,47.90
2018-04-06T12:54:31.490Z,47.90
2018-04-06T12:56:59.856Z,44.50
2018-04-06T12:59:27.495Z,44.50
2018-04-06T13:01:55.017Z,46.00
2018-04-06T13:04:22.970Z,44.70
2018-04-06T13:06:51.254Z,46.30
2018-04-06T13:09:18.788Z,46.20
2018-04-06T13:11:47.077Z,45.50
2018-04-06T13:14:15.362Z,45.20
2018-04-06T13:16:42.888Z,45.20
2018-04-06T13:19:10.421Z,46.10
2018-04-06T13:21:37.956Z,42.60
2018-04-06T13:24:05.489Z,40.90
2018-04-06T13:26:33.768Z,41.00
2018-04-06T13:29:01.278Z,41.00
2018-04-06T13:31:28.834Z,39.40
2018-04-06T13:33:56.347Z,37.00
2018-04-06T13:36:23.876Z,38.70
2018-04-06T13:38:51.395Z,36.00
2018-04-06T13:41:18.926Z,35.70
2018-04-06T13:43:46.470Z,34.40
2018-04-06T13:46:14.770Z,33.60
2018-04-06T13:48:42.299Z,33.60
2018-04-06T13:51:09.968Z,33.40
2018-04-06T13:53:38.240Z,32.30
2018-04-06T13:56:06.761Z,33.80
2018-04-06T13:58:34.299Z,33.20
2018-04-06T14:01:01.910Z,32.40
2018-04-06T14:03:30.205Z,32.20
2018-04-06T14:05:58.543Z,31.60
2018-04-06T14:08:26.118Z,31.50
2018-04-06T14:10:53.694Z,31.60
2018-04-06T14:13:21.212Z,31.70
2018-04-06T14:15:48.737Z,32.30
2018-04-06T14:18:17.044Z,32.10
2018-04-06T14:20:44.572Z,32.10
2018-04-06T14:23:12.088Z,32.50
2018-04-06T14:25:39.605Z,33.40
2018-04-06T14:28:07.444Z,32.50
2018-04-06T14:30:35.936Z,31.80
2018-04-06T14:33:04.212Z,31.50
2018-04-06T14:35:32.479Z,32.10
2018-04-06T14:38:00.764Z,30.30
2018-04-06T14:40:28.284Z,30.90
2018-04-06T14:42:55.806Z,30.70
2018-04-06T14:45:24.079Z,31.90
2018-04-06T14:47:51.611Z,31.50
2018-04-06T14:50:19.934Z,32.30
2018-04-06T14:52:47.485Z,32.40
2018-04-06T14:55:15.046Z,32.70
2018-04-06T14:57:42.552Z,32.60
2018-04-06T15:00:10.059Z,31.50
2018-04-06T15:02:38.464Z,32.30
2018-04-06T15:05:05.972Z,31.30
2018-04-06T15:07:33.490Z,31.20
2018-04-06T15:10:01.652Z,30.80
2018-04-06T15:12:29.174Z,31.00
2018-04-06T15:14:56.757Z,30.60
2018-04-06T15:17:24.258Z,30.50
2018-04-06T15:19:51.794Z,31.40
2018-04-06T15:22:19.304Z,32.00
2018-04-06T15:24:46.850Z,31.00
2018-04-06T15:27:14.363Z,31.10
2018-04-06T15:29:41.863Z,31.00
2018-04-06T15:32:09.400Z,31.00
2018-04-06T15:34:37.684Z,30.80
2018-04-06T15:37:06.025Z,30.10
2018-04-06T15:39:34.765Z,30.00
2018-04-06T15:42:02.303Z,29.90
2018-04-06T15:44:29.838Z,30.80
2018-04-06T15:46:57.359Z,31.40
2018-04-06T15:49:24.885Z,31.40
2018-04-06T15:51:52.419Z,30.00
2018-04-06T15:54:20.301Z,30.00
2018-04-06T15:56:48.632Z,30.10
2018-04-06T15:59:16.158Z,29.60
2018-04-06T16:01:43.707Z,29.60
2018-04-06T16:04:11.983Z,29.60
2018-04-06T16:06:39.510Z,29.60
2018-04-06T16:09:07.042Z,29.60
2018-04-06T16:11:34.558Z,29.60
2018-04-06T16:14:03.224Z,28.70
2018-04-06T16:16:31.511Z,30.30
2018-04-06T16:18:59.783Z,30.00
2018-04-06T16:21:28.069Z,29.80
2018-04-06T16:23:56.368Z,30.80
2018-04-06T16:26:23.919Z,30.80
2018-04-06T16:28:51.460Z,30.50
2018-04-06T16:31:19.856Z,30.00
2018-04-06T16:33:48.126Z,30.30
2018-04-06T16:36:15.634Z,30.30
2018-04-06T16:38:43.138Z,30.80
2018-04-06T16:41:11.415Z,30.30
2018-04-06T16:43:39.709Z,31.00
2018-04-06T16:46:07.254Z,31.00
2018-04-06T16:48:34.780Z,31.90
2018-04-06T16:51:02.299Z,32.20
2018-04-06T16:53:29.827Z,32.20
2018-04-06T16:55:57.356Z,32.70
2018-04-06T16:58:24.899Z,33.20
2018-04-06T17:00:52.417Z,33.00
2018-04-06T17:03:19.949Z,32.80
2018-04-06T17:05:48.265Z,33.60
2018-04-06T17:08:15.788Z,33.60
2018-04-06T17:10:44.093Z,35.40
2018-04-06T17:13:11.704Z,35.20
2018-04-06T17:15:39.171Z,34.10
2018-04-06T17:18:06.710Z,35.70
2018-04-06T17:20:34.302Z,36.40
2018-04-06T17:23:01.857Z,36.00
2018-04-06T17:25:30.155Z,37.60
2018-04-06T17:27:58.444Z,37.50
2018-04-06T17:30:25.972Z,37.50
2018-04-06T17:32:54.265Z,37.20
2018-04-06T17:35:21.853Z,37.20
2018-04-06T17:37:49.397Z,38.00
2018-04-06T17:40:16.934Z,38.80
2018-04-06T17:42:44.477Z,39.10
2018-04-06T17:45:12.002Z,39.00
2018-04-06T17:47:39.531Z,39.10
2018-04-06T17:50:07.113Z,39.80
2018-04-06T17:52:34.656Z,40.40
2018-04-06T17:55:02.173Z,40.20
2018-04-06T17:57:29.729Z,40.50
2018-04-06T17:59:58.057Z,40.20
2018-04-06T18:02:25.605Z,40.20
2018-04-06T18:04:53.128Z,40.90
2018-04-06T18:07:21.431Z,41.00
2018-04-06T18:09:48.935Z,41.10
2018-04-06T18:12:16.450Z,41.10
2018-04-06T18:14:44.072Z,41.30
2018-04-06T18:17:12.357Z,41.30
2018-04-06T18:19:39.879Z,41.30
2018-04-06T18:22:07.419Z,41.70
2018-04-06T18:24:35.872Z,42.00
2018-04-06T18:27:03.458Z,42.00
2018-04-06T18:29:31.805Z,42.60
2018-04-06T18:31:59.380Z,42.50
2018-04-06T18:34:26.926Z,41.60
2018-04-06T18:36:54.703Z,41.30
2018-04-06T18:39:22.268Z,42.20
2018-04-06T18:41:49.800Z,42.40
2018-04-06T18:44:17.396Z,42.90
2018-04-06T18:46:44.921Z,43.10
2018-04-06T18:49:12.718Z,43.10
2018-04-06T18:51:40.766Z,43.30
2018-04-06T18:54:08.299Z,43.60
2018-04-06T18:56:36.609Z,44.60
2018-04-06T18:59:04.155Z,44.60
2018-04-06T19:01:32.740Z,44.30
2018-04-06T19:04:01.227Z,44.80
2018-04-06T19:06:28.778Z,44.70
2018-04-06T19:08:56.410Z,44.60
2018-04-06T19:11:24.004Z,45.50
2018-04-06T19:13:51.568Z,46.10
2018-04-06T19:16:19.124Z,45.90
2018-04-06T19:18:46.673Z,46.10
2018-04-06T19:21:14.732Z,46.70
2018-04-06T19:23:42.322Z,46.80
2018-04-06T19:26:09.868Z,46.60
2018-04-06T19:28:37.416Z,47.30
2018-04-06T19:31:05.764Z,46.70
2018-04-06T19:33:34.084Z,47.10
2018-04-06T19:36:01.810Z,47.00
2018-04-06T19:38:30.154Z,46.60
2018-04-06T19:40:57.772Z,46.50
2018-04-06T19:43:25.370Z,47.40
2018-04-06T19:45:52.912Z,47.80
2018-04-06T19:48:20.467Z,48.00
2018-04-06T19:50:48.307Z,47.80
2018-04-06T19:53:15.930Z,48.90
2018-04-06T19:55:44.273Z,48.40
2018-04-06T19:58:11.851Z,48.50
2018-04-06T20:00:40.153Z,48.70
2018-04-06T20:03:07.748Z,48.70
2018-04-06T20:05:35.321Z,48.80
2018-04-06T20:08:02.851Z,48.90
2018-04-06T20:10:30.425Z,48.30
2018-04-06T20:12:57.990Z,48.30
2018-04-06T20:15:25.552Z,47.80
2018-04-06T20:17:53.098Z,48.40
2018-04-06T20:20:20.673Z,47.80
2018-04-06T20:22:48.248Z,48.30
2018-04-06T20:25:15.824Z,47.90
2018-04-06T20:27:43.384Z,47.90
2018-04-06T20:30:10.965Z,48.20
2018-04-06T20:32:38.505Z,48.40
2018-04-06T20:35:06.067Z,47.90
2018-04-06T20:37:33.623Z,48.20
2018-04-06T20:40:01.192Z,48.00
2018-04-06T20:42:29.521Z,48.30
2018-04-06T20:44:57.081Z,48.30
2018-04-06T20:47:25.399Z,48.60
2018-04-06T20:49:53.782Z,49.00
2018-04-06T20:52:21.324Z,49.00
2018-04-06T20:54:48.895Z,49.10
2018-04-06T20:57:16.488Z,49.00
2018-04-06T20:59:44.772Z,49.70
2018-04-06T21:02:13.097Z,49.90
2018-04-06T21:04:40.644Z,49.90
2018-04-06T21:07:08.184Z,49.50
2018-04-06T21:09:35.825Z,50.00
2018-04-06T21:12:03.402Z,50.80
2018-04-06T21:14:31.194Z,52.00
2018-04-06T21:16:58.723Z,52.00
2018-04-06T21:19:26.257Z,51.60
2018-04-06T21:21:54.549Z,52.50
2018-04-06T21:24:22.106Z,52.40
2018-04-06T21:26:49.628Z,52.70
2018-04-06T21:29:17.966Z,52.50
2018-04-06T21:31:45.480Z,52.50
2018-04-06T21:34:13.060Z,52.50
2018-04-06T21:36:40.582Z,52.50
2018-04-06T21:39:08.145Z,53.00
2018-04-06T21:41:36.477Z,53.20
2018-04-06T21:44:04.426Z,53.20
2018-04-06T21:46:32.070Z,54.10
2018-04-06T21:48:59.594Z,53.50
2018-04-06T21:51:27.123Z,53.60
2018-04-06T21:53:54.636Z,53.90
2018-04-06T21:56:22.934Z,53.90
2018-04-06T21:58:50.451Z,53.80
2018-04-06T22:01:17.959Z,54.40
2018-04-06T22:03:45.469Z,54.50
2018-04-06T22:06:13.000Z,54.80
2018-04-06T22:08:41.288Z,55.50
2018-04-06T22:11:08.864Z,54.90
2018-04-06T22:13:36.398Z,54.40
2018-04-06T22:16:04.894Z,55.10
2018-04-06T22:18:32.419Z,54.50
2018-04-06T22:20:59.993Z,55.30
2018-04-06T22:23:28.259Z,55.10
2018-04-06T22:25:55.780Z,55.00
2018-04-06T22:28:24.051Z,55.00
2018-04-06T22:30:53.851Z,55.00
2018-04-06T22:33:22.126Z,55.60
2018-04-06T22:35:49.670Z,55.50
2018-04-06T22:38:17.771Z,55.50
2018-04-06T22:40:46.053Z,55.40
2018-04-06T22:43:13.590Z,55.40
2018-04-06T22:45:41.099Z,55.70
2018-04-06T22:48:08.674Z,55.60
2018-04-06T22:50:36.876Z,55.50
2018-04-06T22:53:04.414Z,55.80
2018-04-06T22:55:31.949Z,55.50
2018-04-06T22:58:00.119Z,55.40
2018-04-06T23:00:27.626Z,56.10
2018-04-06T23:02:55.198Z,55.70
2018-04-06T23:05:23.487Z,55.80
2018-04-06T23:07:50.998Z,55.80
2018-04-06T23:10:18.544Z,56.30
2018-04-06T23:12:46.061Z,56.30
2018-04-06T23:15:13.583Z,56.30
2018-04-06T23:17:41.084Z,56.10
2018-04-06T23:20:08.583Z,56.60
2018-04-06T23:22:36.115Z,56.30
2018-04-06T23:25:03.625Z,57.20
2018-04-06T23:27:31.124Z,56.90
2018-04-06T23:29:58.673Z,57.10
2018-04-06T23:32:26.179Z,56.90
2018-04-06T23:34:53.708Z,57.40
2018-04-06T23:37:21.242Z,57.10
2018-04-06T23:39:48.791Z,57.50
2018-04-06T23:42:16.319Z,57.70
2018-04-06T23:44:43.821Z,57.50
2018-04-06T23:47:11.352Z,56.90
2018-04-06T23:49:39.642Z,57.80
2018-04-06T23:52:07.139Z,57.80
2018-04-06T23:54:34.649Z,57.90
2018-04-06T23:57:02.917Z,57.80
2018-04-06T23:59:31.340Z,57.80
